Orange8 — JL6278 — position and weather

sailwx.info

Track history (hours):
 
Tides and Currents Weather Stations Pressure Air Temp Water Temp Dewpoint Dewpoint Depression Visibility Wind Speed Wind Dir Waves Ship Positions

Orange8

Last reported at 2017-Jan-22 14:33 UTC. Time now 2017-Jan-23 00:29 UTC.
Position N 34°37' E 134°58'.

Length 164 m; draft 5 m.

Type: Passenger vessel. MMSI: 431501603.

Date/timePositionNaut miles runAvg speedWind from/ knotsBaromVisibWave heightAir tempDewpointWater temp
2017-Jan-22 14:33N 34°37' E 134°58'1717.4
2017-Jan-22 13:34N 34°36' E 135°19'6 4.7
2017-Jan-22 12:24N 34°37' E 135°26'0 0.0
2017-Jan-22 11:30N 34°37' E 135°26'0 0.0
2017-Jan-22 10:30N 34°37' E 135°26'0 0.0
2017-Jan-22 09:30N 34°37' E 135°26'0 0.0
2017-Jan-22 08:30N 34°37' E 135°26'0 0.0
2017-Jan-22 07:30N 34°37' E 135°26'0 0.0
2017-Jan-22 06:30N 34°37' E 135°26'0 0.0
2017-Jan-22 05:30N 34°37' E 135°26'0 0.0
2017-Jan-22 04:30N 34°37' E 135°26'0 0.0
2017-Jan-22 03:30N 34°37' E 135°26'0 0.0
2017-Jan-22 02:24N 34°37' E 135°26'0 0.0
2017-Jan-22 01:18N 34°37' E 135°26'0 0.0
2017-Jan-22 00:30N 34°37' E 135°26'0 0.0
2017-Jan-21 23:30N 34°37' E 135°26'0 0.0
2017-Jan-21 22:30N 34°37' E 135°26'0 0.0
2017-Jan-21 21:30N 34°37' E 135°26'5 5.3
2017-Jan-21 20:33N 34°36' E 135°20'1818.2
2017-Jan-21 19:33N 34°37' E 134°58'1 0.0
2017-Jan-20 14:33N 34°37' E 134°58'1817.8
2017-Jan-20 13:33N 34°37' E 135°19'5 5.1
2017-Jan-20 12:30N 34°37' E 135°26'0 0.0
2017-Jan-20 11:30N 34°37' E 135°26'0 0.0
2017-Jan-20 10:24N 34°37' E 135°26'0 0.0
2017-Jan-20 09:24N 34°37' E 135°26'0 0.0
2017-Jan-20 08:30N 34°37' E 135°26'0 0.0
2017-Jan-20 07:30N 34°37' E 135°26'0 0.0
2017-Jan-20 06:30N 34°37' E 135°26'0 0.0
2017-Jan-20 05:30N 34°37' E 135°26'0 0.0
2017-Jan-20 04:30N 34°37' E 135°26'0 0.0
2017-Jan-20 03:30N 34°37' E 135°26'0 0.0
2017-Jan-20 02:30N 34°37' E 135°26'0 0.0
2017-Jan-20 01:30N 34°37' E 135°26'0 0.0
2017-Jan-20 00:30N 34°37' E 135°26'0 0.0
2017-Jan-19 23:30N 34°37' E 135°26'0 0.0
2017-Jan-19 22:30N 34°37' E 135°26'0 0.0
2017-Jan-19 21:24N 34°37' E 135°26'6 7.5
2017-Jan-19 20:33N 34°36' E 135°18'1918.7
2017-Jan-19 19:31N 34°36' E 134°55'2 0.1
2017-Jan-18 14:32N 34°37' E 134°57'1918.9
2017-Jan-18 13:33N 34°36' E 135°20'5 4.7
2017-Jan-18 12:28N 34°37' E 135°26'0 0.0
2017-Jan-18 11:28N 34°37' E 135°26'0 0.0
2017-Jan-18 10:22N 34°37' E 135°26'0 0.0
2017-Jan-18 09:28N 34°37' E 135°26'0 0.0
2017-Jan-18 08:28N 34°37' E 135°26'0 0.0
2017-Jan-18 07:28N 34°37' E 135°26'0 0.0
2017-Jan-18 06:22N 34°37' E 135°26'0 0.0
2017-Jan-18 05:28N 34°37' E 135°26'0 0.0
2017-Jan-18 04:28N 34°37' E 135°26'0 0.0
2017-Jan-18 03:28N 34°37' E 135°26'0 0.0
2017-Jan-18 02:28N 34°37' E 135°26'0 0.0
2017-Jan-18 01:22N 34°37' E 135°26'0 0.0
2017-Jan-18 00:22N 34°37' E 135°26'0 0.0
2017-Jan-17 23:28N 34°37' E 135°26'0 0.0
2017-Jan-17 22:28N 34°37' E 135°26'0 0.0
2017-Jan-17 21:28N 34°37' E 135°26'7 7.1
2017-Jan-17 20:33N 34°36' E 135°18'1818.3
2017-Jan-17 19:33N 34°36' E 134°56'2 0.1
2017-Jan-16 14:29N 34°37' E 134°58'1718.5
2017-Jan-16 13:33N 34°36' E 135°19'5 5.1
2017-Jan-16 12:29N 34°37' E 135°26'0 0.0
2017-Jan-16 11:29N 34°37' E 135°26'0 0.0
2017-Jan-16 10:29N 34°37' E 135°26'0 0.0
2017-Jan-16 08:29N 34°37' E 135°26'0 0.0
2017-Jan-16 07:29N 34°37' E 135°26'0 0.0
2017-Jan-16 06:29N 34°37' E 135°26'0 0.0
2017-Jan-16 05:29N 34°37' E 135°26'0 0.0
2017-Jan-16 04:29N 34°37' E 135°26'0 0.0
2017-Jan-16 03:29N 34°37' E 135°26'0 0.0
2017-Jan-16 02:29N 34°37' E 135°26'0 0.0
2017-Jan-16 01:29N 34°37' E 135°26'0 0.0
2017-Jan-16 00:29N 34°37' E 135°26'0 0.0
2017-Jan-15 22:23N 34°37' E 135°26'0 0.0
2017-Jan-15 21:29N 34°37' E 135°26'6 6.1
2017-Jan-15 20:33N 34°35' E 135°19'1817.5
2017-Jan-15 19:33N 34°37' E 134°58'1 0.0
2017-Jan-14 14:29N 34°37' E 134°57'1819.3
2017-Jan-14 13:33N 34°36' E 135°19'6 5.8
2017-Jan-14 12:31N 34°37' E 135°26'0 0.0
2017-Jan-14 11:31N 34°37' E 135°26'0 0.0
2017-Jan-14 10:31N 34°37' E 135°26'0 0.0
2017-Jan-14 09:31N 34°37' E 135°26'0 0.0
2017-Jan-14 08:31N 34°37' E 135°26'0 0.0
2017-Jan-14 07:25N 34°37' E 135°26'0 0.0
2017-Jan-14 06:28N 34°37' E 135°26'0 0.0
2017-Jan-14 05:28N 34°37' E 135°26'0 0.0
2017-Jan-14 04:28N 34°37' E 135°26'0 0.0
2017-Jan-14 03:28N 34°37' E 135°26'0 0.0
2017-Jan-13 23:16N 34°37' E 135°26'0 0.0
2017-Jan-13 22:28N 34°37' E 135°26'0 0.0
2017-Jan-13 21:28N 34°37' E 135°26'5 5.9
2017-Jan-13 20:33N 34°36' E 135°19'1918.0
2017-Jan-13 19:30N 34°36' E 134°57'2 0.1
2017-Jan-12 14:33N 34°37' E 134°58'  
Track history (hours):
 
Tides and Currents Weather Stations Pressure Air Temp Water Temp Dewpoint Dewpoint Depression Visibility Wind Speed Wind Dir Waves Ship Positions

Orange8

Last reported at 2017-Jan-22 14:33 UTC. Time now 2017-Jan-23 00:29 UTC.
Position N 34°37' E 134°58'.

Length 164 m; draft 5 m.

Type: Passenger vessel. MMSI: 431501603.

Date/timePositionNaut miles runAvg speedWind from/ knotsBaromVisibWave heightAir tempDewpointWater temp
2017-Jan-22 14:33N 34°37' E 134°58'1717.4
2017-Jan-22 13:34N 34°36' E 135°19'6 4.7
2017-Jan-22 12:24N 34°37' E 135°26'0 0.0
2017-Jan-22 11:30N 34°37' E 135°26'0 0.0
2017-Jan-22 10:30N 34°37' E 135°26'0 0.0
2017-Jan-22 09:30N 34°37' E 135°26'0 0.0
2017-Jan-22 08:30N 34°37' E 135°26'0 0.0
2017-Jan-22 07:30N 34°37' E 135°26'0 0.0
2017-Jan-22 06:30N 34°37' E 135°26'0 0.0
2017-Jan-22 05:30N 34°37' E 135°26'0 0.0
2017-Jan-22 04:30N 34°37' E 135°26'0 0.0
2017-Jan-22 03:30N 34°37' E 135°26'0 0.0
2017-Jan-22 02:24N 34°37' E 135°26'0 0.0
2017-Jan-22 01:18N 34°37' E 135°26'0 0.0
2017-Jan-22 00:30N 34°37' E 135°26'0 0.0
2017-Jan-21 23:30N 34°37' E 135°26'0 0.0
2017-Jan-21 22:30N 34°37' E 135°26'0 0.0
2017-Jan-21 21:30N 34°37' E 135°26'5 5.3
2017-Jan-21 20:33N 34°36' E 135°20'1818.2
2017-Jan-21 19:33N 34°37' E 134°58'1 0.0
2017-Jan-20 14:33N 34°37' E 134°58'1817.8
2017-Jan-20 13:33N 34°37' E 135°19'5 5.1
2017-Jan-20 12:30N 34°37' E 135°26'0 0.0
2017-Jan-20 11:30N 34°37' E 135°26'0 0.0
2017-Jan-20 10:24N 34°37' E 135°26'0 0.0
2017-Jan-20 09:24N 34°37' E 135°26'0 0.0
2017-Jan-20 08:30N 34°37' E 135°26'0 0.0
2017-Jan-20 07:30N 34°37' E 135°26'0 0.0
2017-Jan-20 06:30N 34°37' E 135°26'0 0.0
2017-Jan-20 05:30N 34°37' E 135°26'0 0.0
2017-Jan-20 04:30N 34°37' E 135°26'0 0.0
2017-Jan-20 03:30N 34°37' E 135°26'0 0.0
2017-Jan-20 02:30N 34°37' E 135°26'0 0.0
2017-Jan-20 01:30N 34°37' E 135°26'0 0.0
2017-Jan-20 00:30N 34°37' E 135°26'0 0.0
2017-Jan-19 23:30N 34°37' E 135°26'0 0.0
2017-Jan-19 22:30N 34°37' E 135°26'0 0.0
2017-Jan-19 21:24N 34°37' E 135°26'6 7.5
2017-Jan-19 20:33N 34°36' E 135°18'1918.7
2017-Jan-19 19:31N 34°36' E 134°55'2 0.1
2017-Jan-18 14:32N 34°37' E 134°57'1918.9
2017-Jan-18 13:33N 34°36' E 135°20'5 4.7
2017-Jan-18 12:28N 34°37' E 135°26'0 0.0
2017-Jan-18 11:28N 34°37' E 135°26'0 0.0
2017-Jan-18 10:22N 34°37' E 135°26'0 0.0
2017-Jan-18 09:28N 34°37' E 135°26'0 0.0
2017-Jan-18 08:28N 34°37' E 135°26'0 0.0
2017-Jan-18 07:28N 34°37' E 135°26'0 0.0
2017-Jan-18 06:22N 34°37' E 135°26'0 0.0
2017-Jan-18 05:28N 34°37' E 135°26'0 0.0
2017-Jan-18 04:28N 34°37' E 135°26'0 0.0
2017-Jan-18 03:28N 34°37' E 135°26'0 0.0
2017-Jan-18 02:28N 34°37' E 135°26'0 0.0
2017-Jan-18 01:22N 34°37' E 135°26'0 0.0
2017-Jan-18 00:22N 34°37' E 135°26'0 0.0
2017-Jan-17 23:28N 34°37' E 135°26'0 0.0
2017-Jan-17 22:28N 34°37' E 135°26'0 0.0
2017-Jan-17 21:28N 34°37' E 135°26'7 7.1
2017-Jan-17 20:33N 34°36' E 135°18'1818.3
2017-Jan-17 19:33N 34°36' E 134°56'2 0.1
2017-Jan-16 14:29N 34°37' E 134°58'1718.5
2017-Jan-16 13:33N 34°36' E 135°19'5 5.1
2017-Jan-16 12:29N 34°37' E 135°26'0 0.0
2017-Jan-16 11:29N 34°37' E 135°26'0 0.0
2017-Jan-16 10:29N 34°37' E 135°26'0 0.0
2017-Jan-16 08:29N 34°37' E 135°26'0 0.0
2017-Jan-16 07:29N 34°37' E 135°26'0 0.0
2017-Jan-16 06:29N 34°37' E 135°26'0 0.0
2017-Jan-16 05:29N 34°37' E 135°26'0 0.0
2017-Jan-16 04:29N 34°37' E 135°26'0 0.0
2017-Jan-16 03:29N 34°37' E 135°26'0 0.0
2017-Jan-16 02:29N 34°37' E 135°26'0 0.0
2017-Jan-16 01:29N 34°37' E 135°26'0 0.0
2017-Jan-16 00:29N 34°37' E 135°26'0 0.0
2017-Jan-15 22:23N 34°37' E 135°26'0 0.0
2017-Jan-15 21:29N 34°37' E 135°26'6 6.1
2017-Jan-15 20:33N 34°35' E 135°19'1817.5
2017-Jan-15 19:33N 34°37' E 134°58'1 0.0
2017-Jan-14 14:29N 34°37' E 134°57'1819.3
2017-Jan-14 13:33N 34°36' E 135°19'6 5.8
2017-Jan-14 12:31N 34°37' E 135°26'0 0.0
2017-Jan-14 11:31N 34°37' E 135°26'0 0.0
2017-Jan-14 10:31N 34°37' E 135°26'0 0.0
2017-Jan-14 09:31N 34°37' E 135°26'0 0.0
2017-Jan-14 08:31N 34°37' E 135°26'0 0.0
2017-Jan-14 07:25N 34°37' E 135°26'0 0.0
2017-Jan-14 06:28N 34°37' E 135°26'0 0.0
2017-Jan-14 05:28N 34°37' E 135°26'0 0.0
2017-Jan-14 04:28N 34°37' E 135°26'0 0.0
2017-Jan-14 03:28N 34°37' E 135°26'0 0.0
2017-Jan-13 23:16N 34°37' E 135°26'0 0.0
2017-Jan-13 22:28N 34°37' E 135°26'0 0.0
2017-Jan-13 21:28N 34°37' E 135°26'5 5.9
2017-Jan-13 20:33N 34°36' E 135°19'1918.0
2017-Jan-13 19:30N 34°36' E 134°57'2 0.1
2017-Jan-12 14:33N 34°37' E 134°58'  

Dump ship's entire track history